Latest Weather Observations for Evans Head

IDN60801

Issued at 11:32 am EDT Friday 15 November 2019 (issued every 10 minutes, with the page automatically refreshed every 10 minutes)

About weather observations | Map of weather stations | Latest weather observations for NSW | Other Formats
Station Details ID: 058212 Name: EVANS HEAD RAAF BOMBING RANGE AWS Lat: -29.18 Lon: 153.40 Height: 62.5 m
Data from the previous 72 hours. | See also: Recent months at Evans Head
Date/Time
EDT
Temp
°C
App
Temp
°C
Dew
Point
°C
Rel
Hum
%
Delta-T
°C
Wind Press
QNH
hPa
Press
MSL
hPa
Rain since
9am
mm
Dir  Spd
km/h
Gust
km/h
Spd
kts
Gust
kts
15/11:30am 27.8 25.7 16.1 49 7.2 ENE 22 32 12 17 1012.6 1012.4 0.0
15/11:00am 31.1 28.9 13.4 34 10.6 N 17 26 9 14 1013.1 1012.9 0.0
15/10:30am 29.5 27.6 14.1 39 9.3 N 17 24 9 13 1013.6 1013.3 0.0
15/10:00am 27.7 26.2 15.4 47 7.5 N 17 22 9 12 1013.8 1013.5 0.0
15/09:30am 26.0 25.7 15.4 52 6.4 NNW 11 17 6 9 1014.0 1013.7 0.0
15/09:00am 24.5 24.4 14.9 55 5.7 N 9 15 5 8 1014.1 1013.8 0.0
15/08:30am 22.7 22.8 15.5 64 4.3 N 9 11 5 6 1014.3 1014.0 0.0
15/08:00am 20.0 20.5 15.6 76 2.6 NNW 7 11 4 6 1014.4 1014.1 0.0
15/07:30am 18.0 18.7 16.0 88 1.2 NNW 7 7 4 4 1014.4 1014.1 0.0
15/07:00am 16.5 16.9 15.4 93 0.6 NNW 7 9 4 5 1014.2 1013.9 0.0
15/06:30am 15.4 15.1 14.3 93 0.6 NW 9 11 5 6 1014.0 1013.7 0.0
15/06:00am 14.4 13.6 13.0 91 0.8 NNW 9 11 5 6 1013.6 1013.3 0.0
15/05:30am 14.2 12.9 12.6 90 0.9 NNW 11 15 6 8 1013.3 1013.0 0.0
15/05:00am 14.5 13.3 12.9 90 0.9 NNW 11 15 6 8 1013.0 1012.8 0.0
15/04:30am 14.8 14.1 13.2 90 0.9 NNW 9 13 5 7 1012.9 1012.7 0.0
15/04:00am 15.4 14.5 13.8 90 0.9 N 11 15 6 8 1012.9 1012.7 0.0
15/03:30am 15.7 15.2 13.9 89 1.0 NNW 9 13 5 7 1013.0 1012.8 0.0
15/03:00am 16.5 15.6 14.9 90 0.9 N 13 17 7 9 1013.1 1012.9 0.0
15/02:30am 17.0 16.6 15.3 90 1.0 N 11 15 6 8 1013.3 1013.0 0.0
15/02:00am 17.3 16.7 15.6 90 1.0 N 13 17 7 9 1013.5 1013.2 0.0
15/01:30am 17.9 17.6 16.4 91 0.9 N 13 17 7 9 1013.8 1013.5 0.0
15/01:00am 18.2 18.0 16.7 91 0.9 N 13 17 7 9 1014.1 1013.8 0.0
15/12:30am 18.6 18.6 17.1 91 0.9 N 13 15 7 8 1014.4 1014.1 0.0
15/12:00am 18.7 18.6 16.9 89 1.1 N 13 19 7 10 1014.6 1014.3 0.0
 
Date/Time
EDT
Temp
°C
App
Temp
°C
Dew
Point
°C
Rel
Hum
%
Delta-T
°C
Wind Press
QNH
hPa
Press
MSL
hPa
Rain since
9am
mm
Dir  Spd
km/h
Gust
km/h
Spd
kts
Gust
kts
14/11:30pm 18.8 19.0 16.8 88 1.2 NNE 11 17 6 9 1014.8 1014.5 0.0
14/11:00pm 19.0 18.8 16.8 87 1.3 NNE 13 19 7 10 1014.8 1014.5 0.0
14/10:30pm 19.3 19.5 16.7 85 1.6 NNE 11 19 6 10 1014.9 1014.6 0.0
14/10:00pm 19.3 19.5 16.7 85 1.6 NNE 11 19 6 10 1014.9 1014.6 0.0
14/09:30pm 19.1 18.7 16.3 84 1.7 NNE 13 17 7 9 1014.7 1014.4 0.0
14/09:00pm 19.2 18.8 16.2 83 1.8 NNE 13 19 7 10 1014.3 1014.0 0.0
14/08:30pm 19.4 19.0 16.1 81 2.0 NNE 13 20 7 11 1014.1 1013.8 0.0
14/08:00pm 19.5 19.3 15.6 78 2.3 NNE 11 19 6 10 1014.0 1013.7 0.0
14/07:30pm 19.8 19.1 15.4 76 2.6 NNE 13 17 7 9 1013.7 1013.4 0.0
14/07:00pm 20.7 20.0 15.5 72 3.1 NNE 13 19 7 10 1013.1 1012.9 0.0
14/06:30pm 21.5 19.9 15.1 67 3.8 NNE 17 28 9 15 1012.5 1012.3 0.0
14/06:00pm 22.2 20.3 15.8 67 3.9 NE 20 32 11 17 1012.1 1011.9 0.0
14/05:30pm 22.6 20.3 15.7 65 4.2 NE 22 32 12 17 1011.9 1011.7 0.0
14/05:00pm 22.9 20.5 15.5 63 4.4 ENE 22 32 12 17 1012.0 1011.8 0.0
14/04:30pm 23.1 20.5 14.9 60 4.9 ENE 22 33 12 18 1012.1 1011.9 0.0
14/04:00pm 23.6 21.0 14.9 58 5.2 ENE 22 32 12 17 1012.2 1012.0 0.0
14/03:30pm 24.4 22.5 15.1 56 5.6 ENE 19 28 10 15 1012.5 1012.3 0.0
14/03:00pm 24.0 21.7 14.1 54 5.8 ENE 19 30 10 16 1012.8 1012.6 0.0
14/02:30pm 24.1 21.4 14.5 55 5.7 ENE 22 32 12 17 1013.3 1013.0 0.0
14/02:00pm 24.6 22.3 14.7 54 5.9 ENE 20 32 11 17 1013.5 1013.2 0.0
14/01:30pm 23.7 21.0 14.7 57 5.4 ENE 22 32 12 17 1013.9 1013.6 0.0
14/01:00pm 24.2 21.8 15.4 58 5.3 E 22 30 12 16 1014.4 1014.1 0.0
14/12:30pm 24.2 21.4 14.3 54 5.9 E 22 30 12 16 1014.6 1014.3 0.0
14/12:00pm 24.3 22.1 15.0 56 5.6 ENE 20 28 11 15 1015.0 1014.7 0.0
14/11:30am 24.5 22.2 14.6 54 5.9 ESE 20 24 11 13 1015.5 1015.2 0.0
14/11:00am 26.6 25.1 13.0 43 8.0 N 13 22 7 12 1015.7 1015.4 0.0
14/10:30am 26.9 25.5 13.3 43 8.0 N 13 20 7 11 1015.8 1015.5 0.0
14/10:00am 26.4 25.4 14.5 48 7.1 N 13 24 7 13 1016.0 1015.7 0.0
14/09:30am 24.6 23.1 14.1 52 6.2 N 15 24 8 13 1016.1 1015.8 0.0
14/09:00am 25.1 24.6 14.9 53 6.1 NNW 11 17 6 9 1016.3 1016.0 0.0
14/08:30am 23.2 22.6 14.5 58 5.1 N 11 17 6 9 1016.2 1015.9 0.0
14/08:00am 21.4 21.4 14.1 63 4.3 N 7 13 4 7 1016.1 1015.8 0.0
14/07:30am 19.1 20.1 13.1 68 3.4 CALM 0 0 0 0 1015.8 1015.5 0.0
14/07:00am 17.5 18.7 13.8 79 2.1 CALM 0 0 0 0 1015.7 1015.4 0.0
14/06:30am 16.0 16.0 13.7 86 1.3 NNW 6 9 3 5 1015.3 1015.0 0.0
14/06:00am 15.1 14.1 12.4 84 1.5 NNW 9 11 5 6 1014.9 1014.6 0.0
14/05:30am 15.2 14.1 12.0 81 1.7 N 9 13 5 7 1014.6 1014.3 0.0
14/05:00am 15.9 15.4 12.5 80 1.9 NNW 7 9 4 5 1014.5 1014.2 0.0
14/04:30am 16.0 15.0 12.4 79 2.0 NNW 9 9 5 5 1014.2 1013.9 0.0
14/04:00am 16.6 16.4 12.9 79 2.1 NNW 6 7 3 4 1014.2 1013.9 0.0
14/03:30am 16.6 16.1 12.6 77 2.2 NNW 7 9 4 5 1014.2 1013.9 0.0
14/03:00am 17.0 16.5 12.7 76 2.4 WNW 7 9 4 5 1014.4 1014.1 0.0
14/02:30am 18.0 19.0 13.1 73 2.8 CALM 0 0 0 0 1014.6 1014.3 0.0
14/02:00am 18.2 19.2 13.1 72 2.9 CALM 0 0 0 0 1014.7 1014.4 0.0
14/01:30am 18.3 19.4 13.4 73 2.8 CALM 0 0 0 0 1014.9 1014.6 0.0
14/01:00am 19.0 20.1 13.6 71 3.1 CALM 0 0 0 0 1015.1 1014.8 0.0
14/12:30am 19.3 19.3 13.7 70 3.2 E 6 7 3 4 1015.4 1015.1 0.0
14/12:00am 19.1 18.5 13.5 70 3.2 ENE 9 11 5 6 1015.3 1015.0 0.0
 
Date/Time
EDT
Temp
°C
App
Temp
°C
Dew
Point
°C
Rel
Hum
%
Delta-T
°C
Wind Press
QNH
hPa
Press
MSL
hPa
Rain since
9am
mm
Dir  Spd
km/h
Gust
km/h
Spd
kts
Gust
kts
13/11:30pm 18.8 18.2 13.6 72 3.0 NE 9 13 5 7 1015.2 1014.9 0.0
13/11:00pm 18.4 17.5 13.7 74 2.7 NE 11 15 6 8 1015.2 1014.9 0.0
13/10:30pm 18.1 17.1 13.4 74 2.7 NE 11 15 6 8 1015.0 1014.7 0.0
13/10:00pm 18.1 17.4 13.2 73 2.8 NE 9 11 5 6 1015.0 1014.7 0.0
13/09:30pm 18.2 17.5 13.1 72 2.9 NE 9 11 5 6 1014.8 1014.5 0.0
13/09:00pm 18.7 18.0 13.3 71 3.1 E 9 13 5 7 1014.7 1014.4 0.0
13/08:30pm 19.0 18.1 13.6 71 3.1 ESE 11 15 6 8 1014.5 1014.2 0.0
13/08:00pm 19.0 17.4 12.7 67 3.5 ESE 13 17 7 9 1014.1 1013.8 0.0
13/07:30pm 19.3 17.3 12.6 65 3.8 ESE 15 19 8 10 1013.8 1013.5 0.0
13/07:00pm 19.8 17.8 12.8 64 4.0 ESE 15 19 8 10 1013.3 1013.0 0.0
13/06:30pm 20.4 18.1 12.9 62 4.3 ESE 17 28 9 15 1012.8 1012.6 0.0
13/06:00pm 21.1 18.5 13.3 61 4.5 SE 19 28 10 15 1012.3 1012.1 0.0
13/05:30pm 21.6 18.8 13.2 59 4.8 SE 20 26 11 14 1012.2 1012.0 0.0
13/05:00pm 22.1 19.3 13.2 57 5.1 SE 20 28 11 15 1011.9 1011.7 0.0
13/04:30pm 22.3 19.0 12.8 55 5.4 SE 22 30 12 16 1011.8 1011.6 0.0
13/04:00pm 22.5 19.1 12.4 52 5.8 SE 22 30 12 16 1011.7 1011.5 0.0
13/03:30pm 23.3 19.7 13.2 53 5.9 SE 24 30 13 16 1011.7 1011.5 0.0
13/03:00pm 23.7 19.9 13.6 53 5.9 SE 26 32 14 17 1011.8 1011.6 0.0
13/02:30pm 23.8 20.3 13.4 52 6.1 SE 24 35 13 19 1012.1 1011.9 0.0
13/02:00pm 24.2 20.7 13.4 51 6.3 SSE 24 32 13 17 1012.3 1012.1 0.0
13/01:30pm 24.6 20.9 13.8 51 6.4 SSE 26 35 14 19 1012.7 1012.5 0.0
13/01:00pm 25.1 21.0 13.9 49 6.6 SSE 28 35 15 19 1012.8 1012.6 0.0
13/12:30pm 25.7 22.4 15.1 52 6.4 SSE 26 35 14 19 1012.9 1012.7 0.0
13/12:00pm 24.4 21.3 14.5 54 5.9 SSE 24 35 13 19 1013.0 1012.8 0.0
13/11:30am 24.5 20.8 15.1 55 5.6 SSE 28 37 15 20 1013.0 1012.8 0.0
13/11:00am 24.7 21.2 15.6 57 5.5 SSE 28 39 15 21 1013.0 1012.8 0.0
13/10:30am 23.2 19.0 14.7 58 5.0 SSE 30 41 16 22 1012.9 1012.7 0.0
13/10:00am 23.7 19.9 15.7 61 4.8 SSE 30 41 16 22 1012.7 1012.5 0.0
13/09:30am 22.4 18.4 16.2 68 3.8 S 32 41 17 22 1012.4 1012.2 0.0
13/09:00am 22.7 18.6 16.0 66 4.1 S 32 41 17 22 1011.9 1011.7 0.0
13/08:30am 22.0 18.5 16.5 71 3.3 S 30 43 16 23 1011.5 1011.3 0.0
13/08:00am 22.1 19.2 17.0 73 3.1 S 28 39 15 21 1011.1 1010.9 0.0
13/07:31am 21.2 18.0 17.2 78 2.5 S 30 48 16 26 1010.5 1010.3 0.0
13/07:30am 21.1 17.5 17.1 78 2.5 S 32 48 17 26 1010.5 1010.3 0.0
13/07:00am 20.2 17.1 17.6 85 1.6 S 30 43 16 23 1009.8 1009.6 0.0
13/06:30am 19.7 16.6 17.5 87 1.3 S 30 43 16 23 1009.4 1009.2 0.0
13/06:00am 19.9 16.6 16.9 83 1.8 SSW 30 39 16 21 1008.9 1008.7 0.0
13/05:30am 20.8 16.5 15.8 73 3.0 S 33 50 18 27 1008.1 1007.9 0.0
13/05:00am 23.1 18.7 14.1 57 5.3 SSW 30 50 16 27 1007.2 1007.0 0.0
13/04:59am 23.5 19.4 13.7 54 5.7 SSW 28 48 15 26 1007.1 1006.9 0.0
13/04:56am 23.0 19.7 14.0 57 5.3 WSW 24 44 13 24 1006.9 1006.7 0.0
13/04:30am 23.1 20.1 14.9 60 4.9 NNW 24 39 13 21 1004.9 1004.6 0.0
13/04:00am 23.0 20.0 14.8 60 4.9 NNW 24 39 13 21 1004.6 1004.3 0.0
13/03:30am 22.8 19.9 15.1 62 4.6 NNW 24 41 13 22 1004.5 1004.2 0.0
13/03:00am 21.9 19.3 14.8 64 4.2 NNW 22 35 12 19 1004.3 1004.0 0.0
13/02:30am 20.9 18.7 14.8 68 3.6 NNW 20 32 11 17 1004.3 1004.0 0.0
13/02:00am 20.8 18.8 14.9 69 3.5 NNW 19 32 10 17 1004.5 1004.2 0.0
13/01:30am 21.7 20.3 14.6 64 4.2 NNW 15 24 8 13 1004.9 1004.6 0.0
13/01:00am 21.9 21.2 15.3 66 3.9 NNW 13 28 7 15 1005.4 1005.1 0.0
13/12:30am 21.3 21.5 15.8 71 3.3 NNW 9 17 5 9 1005.9 1005.7 0.0
13/12:00am 21.4 20.2 16.1 72 3.2 NNW 17 22 9 12 1006.0 1005.8 0.0
 
Date/Time
EDT
Temp
°C
App
Temp
°C
Dew
Point
°C
Rel
Hum
%
Delta-T
°C
Wind Press
QNH
hPa
Press
MSL
hPa
Rain since
9am
mm
Dir  Spd
km/h
Gust
km/h
Spd
kts
Gust
kts
12/11:30pm 21.5 19.8 16.2 72 3.2 NNW 20 32 11 17 1006.0 1005.8 0.0
12/11:00pm 21.9 20.2 16.2 70 3.5 NNW 20 30 11 16 1006.3 1006.1 0.0
12/10:30pm 22.4 20.9 16.7 70 3.5 NNW 20 30 11 16 1006.5 1006.3 0.0
12/10:00pm 22.6 21.2 16.9 70 3.5 NNW 20 28 11 15 1006.6 1006.4 0.0
12/09:30pm 22.7 21.7 16.5 68 3.8 N 17 24 9 13 1006.5 1006.3 0.0
12/09:00pm 23.4 22.1 16.7 66 4.1 NNW 19 28 10 15 1006.4 1006.2 0.0
12/08:30pm 24.3 22.8 16.8 63 4.6 N 20 30 11 16 1006.1 1005.9 0.0
12/08:00pm 25.3 23.9 17.0 60 5.2 N 20 30 11 16 1006.0 1005.8 0.0
12/07:30pm 25.9 24.5 17.0 58 5.5 N 20 28 11 15 1005.7 1005.5 0.0
12/07:00pm 26.8 25.6 17.6 57 5.8 N 20 35 11 19 1005.5 1005.2 0.0
12/06:30pm 26.5 25.7 18.1 60 5.3 NNE 19 28 10 15 1005.4 1005.1 0.0
12/06:00pm 27.4 26.1 18.1 57 5.9 N 22 33 12 18 1005.2 1004.9 0.0
12/05:30pm 28.6 27.4 18.4 54 6.5 NNE 22 35 12 19 1005.0 1004.7 0.0
12/05:00pm 28.8 28.1 18.3 53 6.7 NNE 19 32 10 17 1005.2 1004.9 0.0
12/04:30pm 31.1 30.2 18.1 46 8.4 NNE 20 30 11 16 1005.5 1005.2 0.0
12/04:00pm 29.8 28.3 17.6 48 7.8 NNE 22 33 12 18 1005.7 1005.5 0.0
12/03:30pm 31.2 28.7 17.1 42 9.0 NNE 26 39 14 21 1006.4 1006.2 0.0
12/03:00pm 31.9 29.8 16.2 38 9.9 NNE 22 39 12 21 1007.1 1006.9 0.0
12/02:30pm 32.7 30.8 15.2 34 10.9 NE 19 32 10 17 1007.8 1007.6 0.0
12/02:24pm 33.2 31.4 13.3 30 12.0 NE 15 28 8 15 1008.1 1007.9 0.0
12/02:00pm 38.4 34.7 8.1 16 17.4 N 17 32 9 17 1008.6 1008.4 0.0
12/01:30pm 36.8 33.7 10.2 20 15.6 N 17 33 9 18 1009.5 1009.3 0.0
12/01:00pm 33.9 32.8 15.4 33 11.6 NNE 15 30 8 16 1010.2 1010.0 0.0
12/12:30pm 33.5 31.2 14.0 30 11.9 NNE 19 33 10 18 1010.9 1010.7 0.0
12/12:00pm 35.5 30.9 9.8 21 14.9 NNW 24 35 13 19 1011.5 1011.3 0.0

Other formats

Comma delimited format used in spreadsheet applications
http://www.bom.gov.au/fwo/IDN60801/IDN60801.94598.axf

JavaScript Object Notation format (JSON) in row-major order
http://www.bom.gov.au/fwo/IDN60801/IDN60801.94598.json

Data quality

Most of these data are generated automatically and are frequently updated. Quality checks on data are not normally performed. It is possible for incorrect values to appear. Refer to information at About Latest Weather Observations and please check the disclaimer before using these data.